createdAt,value
2023-05-20T00:00:01.464Z,15.84
2023-05-20T00:02:31.712Z,15.87
2023-05-20T00:04:59.915Z,15.91
2023-05-20T00:07:27.949Z,15.87
2023-05-20T00:09:56.190Z,15.79
2023-05-20T00:12:24.131Z,15.83
2023-05-20T00:14:53.760Z,15.87
2023-05-20T00:17:22.516Z,15.86
2023-05-20T00:19:51.830Z,15.86
2023-05-20T00:22:19.790Z,15.91
2023-05-20T00:24:47.746Z,15.90
2023-05-20T00:27:15.691Z,15.82
2023-05-20T00:29:43.533Z,15.77
2023-05-20T00:32:11.453Z,15.71
2023-05-20T00:34:39.295Z,15.70
2023-05-20T00:37:08.590Z,15.86
2023-05-20T00:39:36.606Z,15.89
2023-05-20T00:42:05.066Z,15.93
2023-05-20T00:44:33.413Z,16.02
2023-05-20T00:47:02.611Z,16.01
2023-05-20T00:49:30.669Z,16.12
2023-05-20T00:51:58.728Z,16.13
2023-05-20T00:54:28.135Z,16.16
2023-05-20T00:56:56.699Z,16.22
2023-05-20T00:59:25.366Z,16.30
2023-05-20T01:01:53.695Z,16.32
2023-05-20T01:04:21.866Z,16.37
2023-05-20T01:06:49.950Z,16.37
2023-05-20T01:09:17.848Z,16.36
2023-05-20T01:11:53.003Z,16.33
2023-05-20T01:14:25.026Z,16.23
2023-05-20T01:16:56.152Z,16.19
2023-05-20T01:19:39.361Z,16.14
2023-05-20T01:22:12.513Z,16.16
2023-05-20T01:24:43.056Z,16.15
2023-05-20T01:27:13.471Z,16.06
2023-05-20T01:29:44.183Z,16.09
2023-05-20T01:32:13.713Z,16.08
2023-05-20T01:34:43.030Z,16.08
2023-05-20T01:37:11.954Z,16.05
2023-05-20T01:39:42.662Z,15.98
2023-05-20T01:42:12.582Z,15.92
2023-05-20T01:44:40.883Z,15.90
2023-05-20T01:47:08.932Z,15.80
2023-05-20T01:49:37.002Z,15.70
2023-05-20T01:52:05.770Z,15.57
2023-05-20T01:54:34.805Z,15.61
2023-05-20T01:57:04.807Z,15.68
2023-05-20T01:59:32.697Z,15.61
2023-05-20T02:02:01.670Z,15.58
2023-05-20T02:04:29.795Z,15.62
2023-05-20T02:06:57.682Z,15.56
2023-05-20T02:09:25.690Z,15.47
2023-05-20T02:11:53.908Z,15.40
2023-05-20T02:14:23.256Z,15.38
2023-05-20T02:16:51.354Z,15.37
2023-05-20T02:19:23.797Z,15.48
2023-05-20T02:21:52.496Z,15.59
2023-05-20T02:24:21.240Z,15.61
2023-05-20T02:26:51.248Z,15.56
2023-05-20T02:29:22.005Z,15.44
2023-05-20T02:31:52.519Z,15.37
2023-05-20T02:34:22.210Z,15.31
2023-05-20T02:36:51.017Z,15.27
2023-05-20T02:39:18.946Z,15.22
2023-05-20T02:41:46.867Z,15.20
2023-05-20T02:44:14.999Z,15.22
2023-05-20T02:46:43.215Z,15.27
2023-05-20T02:49:12.549Z,15.28
2023-05-20T02:51:41.519Z,15.22
2023-05-20T02:54:09.461Z,15.20
2023-05-20T02:56:37.347Z,15.21
2023-05-20T02:59:06.434Z,15.21
2023-05-20T03:01:35.591Z,15.21
2023-05-20T03:04:04.698Z,15.17
2023-05-20T03:06:34.210Z,15.12
2023-05-20T03:09:02.200Z,15.05
2023-05-20T03:11:31.196Z,14.99
2023-05-20T03:13:59.162Z,14.89
2023-05-20T03:16:28.292Z,14.82
2023-05-20T03:18:56.523Z,14.77
2023-05-20T03:21:25.215Z,14.70
2023-05-20T03:23:55.017Z,14.63
2023-05-20T03:26:23.263Z,14.61
2023-05-20T03:28:52.006Z,14.57
2023-05-20T03:31:20.284Z,14.62
2023-05-20T03:33:48.302Z,14.68
2023-05-20T03:36:16.296Z,14.70
2023-05-20T03:38:44.285Z,14.77
2023-05-20T03:41:13.883Z,14.83
2023-05-20T03:43:42.008Z,14.90
2023-05-20T03:46:09.988Z,14.95
2023-05-20T03:48:37.912Z,14.99
2023-05-20T03:51:06.015Z,15.06
2023-05-20T03:53:34.577Z,15.09
2023-05-20T03:56:02.745Z,15.10
2023-05-20T03:58:33.288Z,15.09
2023-05-20T04:01:01.235Z,15.10
2023-05-20T04:03:30.194Z,15.16
2023-05-20T04:05:58.327Z,15.18
2023-05-20T04:08:26.896Z,15.18
2023-05-20T04:10:57.155Z,15.20
2023-05-20T04:13:26.314Z,15.19
2023-05-20T04:15:55.671Z,15.20
2023-05-20T04:18:24.647Z,15.17
2023-05-20T04:20:55.782Z,15.09
2023-05-20T04:23:23.816Z,15.08
2023-05-20T04:25:51.984Z,15.06
2023-05-20T04:28:23.921Z,15.00
2023-05-20T04:31:00.978Z,15.02
2023-05-20T04:33:29.042Z,15.06
2023-05-20T04:35:58.697Z,15.06
2023-05-20T04:38:30.176Z,15.05
2023-05-20T04:40:58.928Z,15.09
2023-05-20T04:43:30.890Z,15.07
2023-05-20T04:46:06.008Z,15.08
2023-05-20T04:48:34.868Z,15.07
2023-05-20T04:51:03.098Z,15.08
2023-05-20T04:53:33.990Z,15.10
2023-05-20T04:56:03.510Z,15.17
2023-05-20T04:58:31.999Z,15.23
2023-05-20T05:01:02.774Z,15.26
2023-05-20T05:03:31.452Z,15.33
2023-05-20T05:06:00.305Z,15.35
2023-05-20T05:08:28.481Z,15.38
2023-05-20T05:10:56.514Z,15.39
2023-05-20T05:13:24.643Z,15.42
2023-05-20T05:15:59.697Z,15.43
2023-05-20T05:18:30.521Z,15.50
2023-05-20T05:21:02.803Z,15.55
2023-05-20T05:23:31.134Z,15.62
2023-05-20T05:25:59.508Z,15.67
2023-05-20T05:28:27.953Z,15.77
2023-05-20T05:30:56.681Z,15.82
2023-05-20T05:33:24.806Z,15.82
2023-05-20T05:35:54.830Z,15.86
2023-05-20T05:38:22.787Z,15.93
2023-05-20T05:40:50.770Z,15.96
2023-05-20T05:43:19.146Z,15.96
2023-05-20T05:45:49.016Z,16.14
2023-05-20T05:48:16.899Z,16.25
2023-05-20T05:50:48.074Z,16.34
2023-05-20T05:53:19.348Z,16.41
2023-05-20T05:55:49.662Z,16.44
2023-05-20T05:58:18.276Z,16.48
2023-05-20T06:00:46.864Z,16.51
2023-05-20T06:03:15.071Z,16.60
2023-05-20T06:05:46.439Z,16.59
2023-05-20T06:08:14.442Z,16.65
2023-05-20T06:10:48.871Z,16.71
2023-05-20T06:13:21.907Z,16.78
2023-05-20T06:17:15.190Z,16.89
2023-05-20T06:19:43.546Z,16.92
2023-05-20T06:22:11.446Z,17.00
2023-05-20T06:24:39.393Z,17.06
2023-05-20T06:27:09.196Z,17.16
2023-05-20T06:29:37.395Z,17.22
2023-05-20T06:32:05.854Z,17.35
2023-05-20T06:34:33.898Z,17.38
2023-05-20T06:37:02.417Z,17.45
2023-05-20T06:39:30.694Z,17.52
2023-05-20T06:41:58.698Z,17.60
2023-05-20T06:44:32.402Z,17.64
2023-05-20T06:47:02.798Z,17.69
2023-05-20T06:49:32.266Z,17.76
2023-05-20T06:52:01.796Z,17.80
2023-05-20T06:54:30.598Z,17.84
2023-05-20T06:56:58.626Z,17.87
2023-05-20T06:59:26.622Z,17.92
2023-05-20T07:01:56.029Z,17.94
2023-05-20T07:04:24.261Z,18.03
2023-05-20T07:06:52.283Z,18.08
2023-05-20T07:09:21.566Z,18.13
2023-05-20T07:11:50.437Z,18.18
2023-05-20T07:14:18.842Z,18.24
2023-05-20T07:16:47.938Z,18.32
2023-05-20T07:19:17.287Z,18.41
2023-05-20T07:21:45.460Z,18.49
2023-05-20T07:24:23.306Z,18.57
2023-05-20T07:26:51.339Z,18.65
2023-05-20T07:29:19.416Z,18.70
2023-05-20T07:31:47.685Z,18.76
2023-05-20T07:34:18.854Z,18.79
2023-05-20T07:36:47.261Z,18.84
2023-05-20T07:39:16.474Z,18.88
2023-05-20T07:41:45.289Z,18.92
2023-05-20T07:44:14.433Z,18.99
2023-05-20T07:46:46.182Z,19.06
2023-05-20T07:49:14.328Z,19.12
2023-05-20T07:51:43.694Z,19.20
2023-05-20T07:54:12.670Z,19.25
2023-05-20T07:56:41.057Z,19.33
2023-05-20T07:59:10.944Z,19.43
2023-05-20T08:01:45.419Z,19.50
2023-05-20T08:04:15.978Z,19.53
2023-05-20T08:06:45.727Z,19.63
2023-05-20T08:09:20.870Z,19.71
2023-05-20T08:11:52.393Z,19.75
2023-05-20T08:14:20.297Z,19.81
2023-05-20T08:16:53.783Z,19.89
2023-05-20T08:19:24.602Z,19.93
2023-05-20T08:21:54.407Z,19.98
2023-05-20T08:24:22.777Z,20.03
2023-05-20T08:26:50.820Z,20.15
2023-05-20T08:29:20.495Z,20.21
2023-05-20T08:31:48.502Z,20.26
2023-05-20T08:34:17.805Z,20.23
2023-05-20T08:36:47.215Z,20.22
2023-05-20T08:39:17.042Z,20.23
2023-05-20T08:41:48.214Z,20.23
2023-05-20T08:44:18.528Z,20.23
2023-05-20T08:46:47.518Z,20.39
2023-05-20T08:49:15.683Z,20.57
2023-05-20T08:51:44.317Z,20.62
2023-05-20T08:54:12.991Z,20.62
2023-05-20T08:56:43.148Z,20.64
2023-05-20T08:59:11.170Z,20.64
2023-05-20T09:01:43.989Z,20.75
2023-05-20T09:04:12.624Z,20.80
2023-05-20T09:06:44.753Z,20.88
2023-05-20T09:09:13.445Z,20.82
2023-05-20T09:11:43.389Z,20.80
2023-05-20T09:14:11.454Z,20.87
2023-05-20T09:16:41.314Z,20.94
2023-05-20T09:19:09.900Z,20.91
2023-05-20T09:21:39.023Z,20.90
2023-05-20T09:24:07.711Z,20.90
2023-05-20T09:26:36.133Z,21.00
2023-05-20T09:29:05.629Z,21.07
2023-05-20T09:31:34.469Z,21.06
2023-05-20T09:34:02.978Z,21.13
2023-05-20T09:36:31.845Z,21.18
2023-05-20T09:39:05.844Z,21.17
2023-05-20T09:41:40.489Z,21.21
2023-05-20T09:44:11.289Z,21.26
2023-05-20T09:46:40.264Z,21.34
2023-05-20T09:49:08.528Z,21.41
2023-05-20T09:51:36.917Z,21.34
2023-05-20T09:54:08.341Z,21.35
2023-05-20T09:56:37.441Z,21.44
2023-05-20T09:59:06.709Z,21.47
2023-05-20T10:01:36.256Z,21.58
2023-05-20T10:04:07.001Z,21.67
2023-05-20T10:07:03.631Z,21.75
2023-05-20T10:09:51.342Z,21.80
2023-05-20T10:12:28.480Z,21.78
2023-05-20T10:15:05.873Z,21.82
2023-05-20T10:17:43.758Z,21.81
2023-05-20T10:20:12.405Z,21.83
2023-05-20T10:22:40.991Z,21.84
2023-05-20T10:25:14.083Z,21.78
2023-05-20T10:27:46.288Z,21.71
2023-05-20T10:30:18.441Z,21.66
2023-05-20T10:32:56.785Z,21.76
2023-05-20T10:35:27.189Z,21.81
2023-05-20T10:37:56.589Z,21.89
2023-05-20T10:40:24.521Z,22.00
2023-05-20T10:42:52.465Z,22.07
2023-05-20T10:45:27.771Z,22.09
2023-05-20T10:47:59.078Z,22.15
2023-05-20T10:50:30.784Z,22.35
2023-05-20T10:53:05.472Z,22.41
2023-05-20T10:55:39.392Z,22.29
2023-05-20T10:58:07.784Z,22.30
2023-05-20T11:00:37.106Z,22.44
2023-05-20T11:03:07.929Z,22.42
2023-05-20T11:05:37.145Z,22.52
2023-05-20T11:08:16.934Z,22.52
2023-05-20T11:10:57.702Z,22.59
2023-05-20T11:13:27.122Z,22.70
2023-05-20T11:15:55.683Z,22.77
2023-05-20T11:18:25.125Z,22.93
2023-05-20T11:20:54.354Z,23.07
2023-05-20T11:23:23.418Z,23.11
2023-05-20T11:25:51.990Z,23.20
2023-05-20T11:28:21.316Z,23.26
2023-05-20T11:30:49.906Z,23.42
2023-05-20T11:33:18.659Z,23.71
2023-05-20T11:35:49.556Z,23.97
2023-05-20T11:38:18.096Z,24.21
2023-05-20T11:40:51.029Z,24.52
2023-05-20T11:43:20.528Z,24.64
2023-05-20T11:45:53.838Z,24.55
2023-05-20T11:48:22.376Z,24.50
2023-05-20T11:50:51.663Z,24.56
2023-05-20T11:53:20.881Z,24.74
2023-05-20T11:55:50.476Z,24.86
2023-05-20T11:58:20.477Z,24.83
2023-05-20T12:00:53.254Z,24.81
2023-05-20T12:03:23.437Z,24.78
2023-05-20T12:05:54.172Z,24.86
2023-05-20T12:08:22.762Z,25.03
2023-05-20T12:10:50.886Z,24.99
2023-05-20T12:13:19.427Z,24.98
2023-05-20T12:15:47.421Z,25.03
2023-05-20T12:18:15.507Z,25.15
2023-05-20T12:20:43.755Z,25.28
2023-05-20T12:23:13.124Z,25.45
2023-05-20T12:25:41.017Z,25.34
2023-05-20T12:28:09.139Z,25.23
2023-05-20T12:30:37.292Z,25.20
2023-05-20T12:33:05.390Z,25.32
2023-05-20T12:35:38.762Z,25.59
2023-05-20T12:38:06.980Z,25.70
2023-05-20T12:40:37.085Z,25.85
2023-05-20T12:43:06.307Z,26.13
2023-05-20T12:45:34.449Z,26.14
2023-05-20T12:48:02.782Z,25.91
2023-05-20T12:50:30.685Z,25.79
2023-05-20T12:52:58.603Z,25.74
2023-05-20T12:55:26.548Z,25.83
2023-05-20T12:57:56.864Z,26.15
2023-05-20T13:00:24.908Z,26.31
2023-05-20T13:02:53.189Z,26.45
2023-05-20T13:05:21.599Z,26.29
2023-05-20T13:07:49.960Z,26.15
2023-05-20T13:10:18.363Z,26.14
2023-05-20T13:12:46.924Z,25.87
2023-05-20T13:15:16.865Z,25.76
2023-05-20T13:17:44.891Z,25.82
2023-05-20T13:20:14.048Z,25.60
2023-05-20T13:22:42.035Z,25.44
2023-05-20T13:25:10.521Z,25.34
2023-05-20T13:27:38.469Z,25.22
2023-05-20T13:30:07.696Z,25.36
2023-05-20T13:32:37.150Z,25.59
2023-05-20T13:35:05.597Z,25.84
2023-05-20T13:37:33.579Z,26.09
2023-05-20T13:40:01.523Z,26.30
2023-05-20T13:42:29.917Z,26.47
2023-05-20T13:44:57.930Z,26.71
2023-05-20T13:47:25.996Z,26.93
2023-05-20T13:49:55.307Z,27.18
2023-05-20T13:52:23.335Z,27.35
2023-05-20T13:54:51.553Z,27.45
2023-05-20T13:57:19.642Z,27.57
2023-05-20T13:59:47.615Z,27.67
2023-05-20T14:02:15.631Z,27.78
2023-05-20T14:04:44.948Z,27.91
2023-05-20T14:07:14.380Z,28.06
2023-05-20T14:09:42.298Z,28.13
2023-05-20T14:12:10.267Z,28.23
2023-05-20T14:14:38.158Z,28.31
2023-05-20T14:17:06.120Z,28.33
2023-05-20T14:19:34.115Z,28.45
2023-05-20T14:22:03.324Z,28.53
2023-05-20T14:24:32.617Z,28.57
2023-05-20T14:27:00.738Z,28.64
2023-05-20T14:29:28.588Z,28.75
2023-05-20T14:31:56.770Z,28.87
2023-05-20T14:34:24.806Z,28.99
2023-05-20T14:36:52.887Z,29.03
2023-05-20T14:39:20.787Z,29.16
2023-05-20T14:41:50.022Z,29.29
2023-05-20T14:44:17.921Z,29.36
2023-05-20T14:46:45.866Z,29.45
2023-05-20T14:49:13.824Z,29.56
2023-05-20T14:51:42.543Z,29.63
2023-05-20T14:54:10.665Z,29.73
2023-05-20T14:56:39.065Z,29.87
2023-05-20T14:59:08.475Z,29.94
2023-05-20T15:01:37.060Z,29.95
2023-05-20T15:04:05.418Z,29.92
2023-05-20T15:06:34.973Z,29.98
2023-05-20T15:09:02.956Z,30.03
2023-05-20T15:11:30.856Z,30.02
2023-05-20T15:13:58.946Z,30.14
2023-05-20T15:16:28.539Z,30.21
2023-05-20T15:18:56.597Z,30.28
2023-05-20T15:21:24.494Z,30.27
2023-05-20T15:23:52.681Z,30.28
2023-05-20T15:26:21.641Z,30.37
2023-05-20T15:28:49.616Z,30.40
2023-05-20T15:31:17.759Z,30.40
2023-05-20T15:33:47.334Z,30.34
2023-05-20T15:36:15.409Z,30.33
2023-05-20T15:38:43.993Z,30.34
2023-05-20T15:41:13.537Z,30.32
2023-05-20T15:43:42.306Z,30.30
2023-05-20T15:46:10.241Z,30.32
2023-05-20T15:48:39.019Z,30.32
2023-05-20T15:51:08.339Z,30.32
2023-05-20T15:53:37.494Z,30.42
2023-05-20T15:56:07.884Z,30.44
2023-05-20T15:58:36.061Z,30.45
2023-05-20T16:01:04.183Z,30.49
2023-05-20T16:03:32.342Z,30.52
2023-05-20T16:06:00.421Z,30.52
2023-05-20T16:08:30.272Z,30.47
2023-05-20T16:10:58.246Z,30.40
2023-05-20T16:13:26.183Z,30.44
2023-05-20T16:15:57.595Z,30.42
2023-05-20T16:18:25.932Z,30.40
2023-05-20T16:20:53.836Z,30.37
2023-05-20T16:23:21.880Z,30.31
2023-05-20T16:25:51.532Z,30.25
2023-05-20T16:28:19.653Z,30.18
2023-05-20T16:30:47.519Z,30.10
2023-05-20T16:33:17.345Z,30.07
2023-05-20T16:35:45.330Z,30.07
2023-05-20T16:38:13.405Z,30.01
2023-05-20T16:40:41.411Z,29.98
2023-05-20T16:43:10.765Z,29.93
2023-05-20T16:45:38.700Z,29.83
2023-05-20T16:48:07.016Z,29.75
2023-05-20T16:50:35.080Z,29.72
2023-05-20T16:53:03.241Z,29.66
2023-05-20T16:55:31.243Z,29.62
2023-05-20T16:57:59.154Z,29.62
2023-05-20T17:00:28.472Z,29.60
2023-05-20T17:02:56.523Z,29.54
2023-05-20T17:05:25.510Z,29.48
2023-05-20T17:07:55.722Z,29.33
2023-05-20T17:10:23.820Z,29.16
2023-05-20T17:12:51.729Z,28.95
2023-05-20T17:15:19.678Z,28.80
2023-05-20T17:17:48.981Z,28.62
2023-05-20T17:20:16.951Z,28.43
2023-05-20T17:22:44.980Z,28.12
2023-05-20T17:25:13.187Z,27.82
2023-05-20T17:27:41.459Z,27.55
2023-05-20T17:30:09.992Z,27.28
2023-05-20T17:32:38.682Z,27.02
2023-05-20T17:35:09.405Z,26.74
2023-05-20T17:37:37.781Z,26.50
2023-05-20T17:40:06.908Z,26.28
2023-05-20T17:42:35.604Z,26.04
2023-05-20T17:45:03.540Z,25.81
2023-05-20T17:47:31.724Z,25.64
2023-05-20T17:50:00.031Z,25.45
2023-05-20T17:52:29.422Z,25.30
2023-05-20T17:54:57.384Z,25.16
2023-05-20T17:57:25.676Z,25.01
2023-05-20T17:59:54.507Z,24.89
2023-05-20T18:02:22.545Z,24.74
2023-05-20T18:04:50.561Z,24.63
2023-05-20T18:07:18.682Z,24.52
2023-05-20T18:09:48.022Z,24.43
2023-05-20T18:12:16.576Z,24.33
2023-05-20T18:14:44.550Z,24.26
2023-05-20T18:17:12.465Z,24.18
2023-05-20T18:19:40.573Z,24.12
2023-05-20T18:22:08.632Z,24.06
2023-05-20T18:24:36.605Z,23.97
2023-05-20T18:27:06.473Z,23.88
2023-05-20T18:29:34.504Z,23.80
2023-05-20T18:32:02.609Z,23.74
2023-05-20T18:34:33.000Z,23.66
2023-05-20T18:37:01.122Z,23.59
2023-05-20T18:39:29.046Z,23.38
2023-05-20T18:41:57.098Z,23.44
2023-05-20T18:44:26.462Z,23.38
2023-05-20T18:46:54.557Z,23.28
2023-05-20T18:49:22.417Z,23.29
2023-05-20T18:51:50.311Z,23.24
2023-05-20T18:54:18.301Z,23.12
2023-05-20T18:56:48.387Z,23.10
2023-05-20T18:59:16.695Z,23.06
2023-05-20T19:01:46.026Z,23.01
2023-05-20T19:04:14.017Z,22.86
2023-05-20T19:06:41.926Z,22.77
2023-05-20T19:09:09.853Z,22.74
2023-05-20T19:11:37.732Z,22.72
2023-05-20T19:14:07.345Z,22.68
2023-05-20T19:16:35.402Z,22.61
2023-05-20T19:19:04.870Z,22.58
2023-05-20T19:21:33.535Z,22.58
2023-05-20T19:24:01.481Z,22.53
2023-05-20T19:26:29.427Z,22.46
2023-05-20T19:28:57.302Z,22.49
2023-05-20T19:31:25.588Z,22.45
2023-05-20T19:33:53.668Z,22.39
2023-05-20T19:36:23.046Z,22.32
2023-05-20T19:38:51.004Z,22.27
2023-05-20T19:41:19.461Z,22.24
2023-05-20T19:43:47.402Z,22.21
2023-05-20T19:46:15.583Z,22.11
2023-05-20T19:48:43.596Z,22.04
2023-05-20T19:51:11.711Z,22.01
2023-05-20T19:53:41.273Z,22.03
2023-05-20T19:56:09.272Z,22.07
2023-05-20T19:58:37.370Z,22.08
2023-05-20T20:01:06.703Z,22.12
2023-05-20T20:03:35.003Z,22.15
2023-05-20T20:06:04.152Z,22.17
2023-05-20T20:08:32.548Z,22.19
2023-05-20T20:11:01.812Z,22.13
2023-05-20T20:13:30.479Z,22.05
2023-05-20T20:15:58.737Z,22.01
2023-05-20T20:18:26.796Z,21.97
2023-05-20T20:20:59.785Z,21.98
2023-05-20T20:23:27.943Z,21.97
2023-05-20T20:25:56.480Z,21.79
2023-05-20T20:28:26.309Z,21.72
2023-05-20T20:30:54.584Z,21.72
2023-05-20T20:33:22.711Z,21.71
2023-05-20T20:35:54.402Z,21.63
2023-05-20T20:38:22.460Z,21.56
2023-05-20T20:40:53.433Z,21.56
2023-05-20T20:43:22.772Z,21.53
2023-05-20T20:45:53.290Z,21.52
2023-05-20T20:48:26.731Z,21.50
2023-05-20T20:50:55.066Z,21.47
2023-05-20T20:53:23.001Z,21.49
2023-05-20T20:55:51.730Z,21.43
2023-05-20T20:58:19.670Z,21.29
2023-05-20T21:00:48.701Z,21.22
2023-05-20T21:03:18.996Z,21.19
2023-05-20T21:05:48.513Z,21.11
2023-05-20T21:08:16.419Z,21.03
2023-05-20T21:10:44.541Z,21.03
2023-05-20T21:13:12.657Z,20.92
2023-05-20T21:15:41.734Z,20.86
2023-05-20T21:18:09.674Z,20.86
2023-05-20T21:20:38.968Z,20.86
2023-05-20T21:23:06.983Z,20.82
2023-05-20T21:25:34.979Z,20.82
2023-05-20T21:28:03.105Z,20.83
2023-05-20T21:30:31.031Z,20.83
2023-05-20T21:32:58.996Z,20.78
2023-05-20T21:35:27.028Z,20.84
2023-05-20T21:37:56.366Z,20.93
2023-05-20T21:40:24.445Z,20.92
2023-05-20T21:42:52.588Z,20.95
2023-05-20T21:45:20.573Z,20.92
2023-05-20T21:47:48.612Z,20.95
2023-05-20T21:50:16.555Z,20.94
2023-05-20T21:52:44.531Z,20.98
2023-05-20T21:55:13.867Z,21.04
2023-05-20T21:57:41.760Z,21.08
2023-05-20T22:00:11.500Z,21.03
2023-05-20T22:02:39.576Z,21.12
2023-05-20T22:05:07.869Z,21.04
2023-05-20T22:07:35.932Z,20.93
2023-05-20T22:10:04.190Z,20.61
2023-05-20T22:12:35.870Z,20.58
2023-05-20T22:15:03.955Z,20.51
2023-05-20T22:17:34.188Z,20.51
2023-05-20T22:20:04.646Z,20.36
2023-05-20T22:22:32.571Z,20.38
2023-05-20T22:25:00.518Z,20.30
2023-05-20T22:27:28.635Z,20.25
2023-05-20T22:29:58.344Z,20.17
2023-05-20T22:32:26.323Z,20.23
2023-05-20T22:34:58.374Z,20.34
2023-05-20T22:37:28.792Z,20.30
2023-05-20T22:39:57.126Z,20.33
2023-05-20T22:42:25.117Z,20.30
2023-05-20T22:44:53.777Z,20.30
2023-05-20T22:47:23.137Z,20.28
2023-05-20T22:49:51.392Z,20.21
2023-05-20T22:52:21.259Z,20.22
2023-05-20T22:54:49.242Z,20.16
2023-05-20T22:57:18.819Z,20.07
2023-05-20T22:59:47.032Z,20.02
2023-05-20T23:02:14.932Z,19.97
2023-05-20T23:04:44.475Z,19.94
2023-05-20T23:07:15.217Z,19.90
2023-05-20T23:09:43.134Z,19.86
2023-05-20T23:12:11.135Z,19.80
2023-05-20T23:14:39.160Z,19.66
2023-05-20T23:17:07.304Z,19.65
2023-05-20T23:19:35.546Z,19.63
2023-05-20T23:22:05.108Z,19.66
2023-05-20T23:24:33.019Z,19.64
2023-05-20T23:27:00.917Z,19.66
2023-05-20T23:29:28.980Z,19.71
2023-05-20T23:31:56.837Z,19.68
2023-05-20T23:34:24.774Z,19.58
2023-05-20T23:36:52.884Z,19.64
2023-05-20T23:39:22.680Z,19.60
2023-05-20T23:41:50.647Z,19.56
2023-05-20T23:44:18.581Z,19.61
2023-05-20T23:46:46.462Z,19.63
2023-05-20T23:49:14.383Z,19.55
2023-05-20T23:51:42.223Z,19.37
2023-05-20T23:54:10.184Z,19.22
2023-05-20T23:56:39.492Z,19.34
2023-05-20T23:59:07.424Z,19.37
